Aérodrome :
LOGIN :

S'inscrire | Disclaimer

   EN    FR    IT 

 










Légende :    VFR   VFR Marginal   IFR   IFR Intensif   IFR Très Intensif
Visi : 
Plafond : 
>= 8 km
>= 3000ft
5 à 8 km
1000 à 3000 ft
1500m à 5 km
500 à 1000 ft
800 à 1500m
200 à 500 ft
< 800m
< 200 ft
Symboles :   Orages  Brouillard  Fortes neiges  Fortes précipitations  Vent > 20 kt
SIGMETs :   Divers  Orages  Givrage  Turbulence  Onde Orograph.  Cendres Volcan.







- Altitude de l'aérodrome : 1411 ft
- Code IATA : SZG


LOWS - Salzburg

DERNIER METAR :
  • 140350Z AUTO 15011KT 9999 FEW070 BKN090 03/M03 Q0998

METARs EXPIRÉS :
  • 140320Z AUTO 16013KT 9999 FEW070 BKN080 02/M03 Q0998
  • 140250Z AUTO 14011KT 100V170 9999 FEW060 BKN080 03/M03 Q0998
  • 140220Z AUTO 14010KT 9999 FEW044 BKN070 03/M03 Q0999
  • 140150Z AUTO 15007KT 120V200 9999 -SHRA FEW034 BKN050 03/M03 Q1000
  • 140120Z AUTO 15010KT 110V180 9999 FEW038 SCT050 BKN070 03/M03 Q0999

TAF TAF LOWS
Valide du 14 à 00h jusqu'au 15 à 00h UTC


132315Z 1400/1424 15007KT 9999 FEW080 BKN100 TX06/1413Z TN01/1400Z
TEMPO 1400/1404 -SN SCT030 BKN040
PROB30
TEMPO 1400/1406 -FZRA FEW030 BKN050
TEMPO 1404/1410 -SHRA SCT050 BKN070
TEMPO 1405/1413 28015G25KT
TEMPO 1419/1424 -SN
Pas de NOTAMs connus pour ce terrain.



MET'MAP, la Météo Aéronautique d'un coup d'oeil ! - Copyright ORBIFLY Décembre 2007 - Disclaimer

ORBIFLY MET'MAP TEAM :

Programmation & Développement : Alexandra Zaïnal
Conception & Développement : Baudouin d'Aumeries
Co-Programmation & Développement : Marc-Olivier Méhu
Soutien technique & logistique : Manuel Goepfert

Contact : metmap@orbifly.com




SOURCES & CREDITS :

   NOAA